createdAt,value
2023-01-21T00:01:21.761Z,9.07
2023-01-21T00:04:23.286Z,9.05
2023-01-21T00:07:29.862Z,7.93
2023-01-21T00:10:31.406Z,11.10
2023-01-21T00:13:34.734Z,9.15
2023-01-21T00:16:36.285Z,9.10
2023-01-21T00:19:38.339Z,10.20
2023-01-21T00:22:39.825Z,9.93
2023-01-21T00:25:41.489Z,8.18
2023-01-21T00:28:44.148Z,7.65
2023-01-21T00:31:45.740Z,7.28
2023-01-21T00:34:47.613Z,10.00
2023-01-21T00:37:51.325Z,8.77
2023-01-21T00:40:52.879Z,7.30
2023-01-21T00:43:55.110Z,9.43
2023-01-21T00:46:56.580Z,8.40
2023-01-21T00:49:58.126Z,7.53
2023-01-21T00:52:59.740Z,8.23
2023-01-21T00:56:03.364Z,9.32
2023-01-21T00:59:05.025Z,6.53
2023-01-21T01:02:06.720Z,6.72
2023-01-21T01:05:08.639Z,6.40
2023-01-21T01:08:10.200Z,6.80
2023-01-21T01:11:13.179Z,6.28
2023-01-21T01:14:14.730Z,5.50
2023-01-21T01:17:16.233Z,5.57
2023-01-21T01:20:18.190Z,5.55
2023-01-21T01:23:20.054Z,5.70
2023-01-21T01:26:22.357Z,9.45
2023-01-21T01:29:24.012Z,8.50
2023-01-21T01:32:25.512Z,7.30
2023-01-21T01:35:27.678Z,4.60
2023-01-21T01:38:29.387Z,5.80
2023-01-21T01:41:35.022Z,6.00
2023-01-21T01:44:57.681Z,5.95
2023-01-21T01:48:03.113Z,7.43
2023-01-21T01:51:07.494Z,6.55
2023-01-21T01:54:10.181Z,7.60
2023-01-21T01:57:14.694Z,5.15
2023-01-21T02:00:17.228Z,4.82
2023-01-21T02:03:37.680Z,5.68
2023-01-21T02:06:40.834Z,4.93
2023-01-21T02:09:42.489Z,8.88
2023-01-21T02:12:44.488Z,4.45
2023-01-21T02:16:02.451Z,5.15
2023-01-21T02:19:10.108Z,4.32
2023-01-21T02:22:29.951Z,4.32
2023-01-21T02:26:05.224Z,6.68
2023-01-21T02:29:31.731Z,4.88
2023-01-21T02:32:54.284Z,4.28
2023-01-21T02:36:10.491Z,3.53
2023-01-21T02:39:20.909Z,4.68
2023-01-21T02:42:40.090Z,3.58
2023-01-21T02:45:49.430Z,4.50
2023-01-21T02:48:58.474Z,5.55
2023-01-21T02:51:59.943Z,4.55
2023-01-21T02:55:02.365Z,4.60
2023-01-21T02:58:17.560Z,5.07
2023-01-21T03:01:27.585Z,9.27
2023-01-21T03:04:36.847Z,4.05
2023-01-21T03:07:59.414Z,5.50
2023-01-21T03:11:13.134Z,4.60
2023-01-21T03:14:44.925Z,5.55
2023-01-21T03:17:56.233Z,4.82
2023-01-21T03:21:08.841Z,5.03
2023-01-21T03:24:12.825Z,4.80
2023-01-21T03:30:21.846Z,5.63
2023-01-21T03:33:24.580Z,4.85
2023-01-21T03:36:31.719Z,4.88
2023-01-21T03:39:54.929Z,4.45
2023-01-21T03:42:56.687Z,5.78
2023-01-21T03:46:13.798Z,6.60
2023-01-21T03:49:26.716Z,4.35
2023-01-21T03:52:28.702Z,3.70
2023-01-21T03:55:30.212Z,4.50
2023-01-21T03:58:31.710Z,4.65
2023-01-21T04:01:33.223Z,5.18
2023-01-21T04:04:34.751Z,4.78
2023-01-21T04:07:36.379Z,8.07
2023-01-21T04:10:37.973Z,4.70
2023-01-21T04:13:39.682Z,6.68
2023-01-21T04:16:41.221Z,3.70
2023-01-21T04:19:42.727Z,5.88
2023-01-21T04:22:44.306Z,5.97
2023-01-21T04:25:48.439Z,5.05
2023-01-21T04:28:50.036Z,5.70
2023-01-21T04:31:51.632Z,4.85
2023-01-21T04:34:53.285Z,7.22
2023-01-21T04:37:54.828Z,5.65
2023-01-21T04:40:56.457Z,6.93
2023-01-21T04:43:58.101Z,4.22
2023-01-21T04:46:59.706Z,4.00
2023-01-21T04:50:02.188Z,5.43
2023-01-21T04:53:03.752Z,4.95
2023-01-21T04:56:05.647Z,3.75
2023-01-21T04:59:07.116Z,3.70
2023-01-21T05:02:08.669Z,4.30
2023-01-21T05:05:10.281Z,6.32
2023-01-21T05:08:11.833Z,4.03
2023-01-21T05:11:19.280Z,5.10
2023-01-21T05:14:20.767Z,4.10
2023-01-21T05:17:22.268Z,4.65
2023-01-21T05:20:23.910Z,5.63
2023-01-21T05:23:25.604Z,4.25
2023-01-21T05:26:27.123Z,3.22
2023-01-21T05:29:28.606Z,5.45
2023-01-21T05:32:30.217Z,5.75
2023-01-21T05:35:34.637Z,3.10
2023-01-21T05:38:36.142Z,5.88
2023-01-21T05:41:37.663Z,4.57
2023-01-21T05:44:39.163Z,5.15
2023-01-21T05:47:40.781Z,5.15
2023-01-21T05:50:42.270Z,4.70
2023-01-21T05:53:43.819Z,4.03
2023-01-21T05:56:45.305Z,4.45
2023-01-21T05:59:47.070Z,5.38
2023-01-21T06:02:48.685Z,3.55
2023-01-21T06:05:50.772Z,4.55
2023-01-21T06:08:52.264Z,3.70
2023-01-21T06:11:53.852Z,3.80
2023-01-21T06:14:55.472Z,5.18
2023-01-21T06:17:57.012Z,5.00
2023-01-21T06:21:01.592Z,5.30
2023-01-21T06:24:03.259Z,8.13
2023-01-21T06:27:04.755Z,5.00
2023-01-21T06:30:07.546Z,5.75
2023-01-21T06:33:09.094Z,7.63
2023-01-21T06:36:10.582Z,9.32
2023-01-21T06:39:12.183Z,6.22
2023-01-21T06:42:13.732Z,5.40
2023-01-21T06:45:16.156Z,5.70
2023-01-21T06:48:17.614Z,6.03
2023-01-21T06:51:19.290Z,4.80
2023-01-21T06:54:20.865Z,7.20
2023-01-21T06:57:22.461Z,6.30
2023-01-21T07:00:24.039Z,5.93
2023-01-21T07:03:25.582Z,7.55
2023-01-21T07:06:27.519Z,8.57
2023-01-21T07:09:29.040Z,6.97
2023-01-21T07:12:30.625Z,5.40
2023-01-21T07:15:32.230Z,6.70
2023-01-21T07:18:34.045Z,6.63
2023-01-21T07:21:35.656Z,6.60
2023-01-21T07:24:37.183Z,8.45
2023-01-21T07:27:40.493Z,10.43
2023-01-21T07:30:42.091Z,10.82
2023-01-21T07:33:43.633Z,11.30
2023-01-21T07:36:45.279Z,11.63
2023-01-21T07:39:47.270Z,10.70
2023-01-21T07:42:53.070Z,10.70
2023-01-21T07:45:58.005Z,11.15
2023-01-21T07:49:01.600Z,11.20
2023-01-21T07:52:03.367Z,8.65
2023-01-21T07:55:06.121Z,10.10
2023-01-21T07:58:07.720Z,9.27
2023-01-21T08:01:10.036Z,7.55
2023-01-21T08:04:11.575Z,11.95
2023-01-21T08:07:13.393Z,9.20
2023-01-21T08:10:15.670Z,9.75
2023-01-21T08:13:17.225Z,9.43
2023-01-21T08:16:18.858Z,11.10
2023-01-21T08:19:20.468Z,13.27
2023-01-21T08:22:22.026Z,12.18
2023-01-21T08:25:23.558Z,10.70
2023-01-21T08:28:25.096Z,16.83
2023-01-21T08:31:26.724Z,13.05
2023-01-21T08:34:29.452Z,10.35
2023-01-21T08:37:32.497Z,11.77
2023-01-21T08:40:34.923Z,13.00
2023-01-21T08:43:36.972Z,11.88
2023-01-21T08:46:38.542Z,12.85
2023-01-21T08:49:40.182Z,9.68
2023-01-21T08:52:42.094Z,8.77
2023-01-21T08:55:43.983Z,12.45
2023-01-21T08:58:45.777Z,27.83
2023-01-21T09:01:47.329Z,17.58
2023-01-21T09:04:50.569Z,21.67
2023-01-21T09:07:52.110Z,36.20
2023-01-21T09:11:01.334Z,31.48
2023-01-21T09:14:04.166Z,27.23
2023-01-21T09:17:05.784Z,17.60
2023-01-21T09:20:07.914Z,15.35
2023-01-21T09:23:25.335Z,9.52
2023-01-21T09:26:27.212Z,9.05
2023-01-21T09:29:28.924Z,9.63
2023-01-21T09:32:44.244Z,8.10
2023-01-21T09:35:56.484Z,9.43
2023-01-21T09:38:58.697Z,13.23
2023-01-21T09:42:00.278Z,8.55
2023-01-21T09:45:04.109Z,10.55
2023-01-21T09:48:08.172Z,10.38
2023-01-21T09:51:20.883Z,10.05
2023-01-21T09:54:28.737Z,12.50
2023-01-21T09:57:58.349Z,6.32
2023-01-21T10:01:31.530Z,12.93
2023-01-21T10:04:43.926Z,7.65
2023-01-21T10:08:08.492Z,10.55
2023-01-21T10:14:29.476Z,7.00
2023-01-21T10:17:42.152Z,13.40
2023-01-21T10:20:57.344Z,13.35
2023-01-21T10:24:14.419Z,7.45
2023-01-21T10:27:22.480Z,14.80
2023-01-21T10:30:38.024Z,8.65
2023-01-21T10:33:39.706Z,10.27
2023-01-21T10:36:41.327Z,23.50
2023-01-21T10:40:10.652Z,27.08
2023-01-21T10:43:46.653Z,7.40
2023-01-21T10:47:00.342Z,8.93
2023-01-21T10:50:29.573Z,9.38
2023-01-21T10:53:39.741Z,11.38
2023-01-21T10:56:51.975Z,12.73
2023-01-21T11:00:04.244Z,14.23
2023-01-21T11:03:24.381Z,11.20
2023-01-21T11:06:28.940Z,12.85
2023-01-21T11:09:38.601Z,8.35
2023-01-21T11:12:40.136Z,7.78
2023-01-21T11:15:52.715Z,8.27
2023-01-21T11:18:54.554Z,6.88
2023-01-21T11:22:18.116Z,8.82
2023-01-21T11:25:41.076Z,7.15
2023-01-21T11:28:42.575Z,9.32
2023-01-21T11:31:48.494Z,10.55
2023-01-21T11:34:57.338Z,9.30
2023-01-21T11:37:58.990Z,8.73
2023-01-21T11:41:04.298Z,10.18
2023-01-21T11:44:24.919Z,9.30
2023-01-21T11:47:47.846Z,10.43
2023-01-21T11:50:49.370Z,6.85
2023-01-21T11:54:16.943Z,16.05
2023-01-21T11:57:31.265Z,8.60
2023-01-21T12:00:36.058Z,8.73
2023-01-21T12:03:42.734Z,8.18
2023-01-21T12:06:48.128Z,9.27
2023-01-21T12:10:13.022Z,12.73
2023-01-21T12:13:47.039Z,23.27
2023-01-21T12:17:09.544Z,19.88
2023-01-21T12:20:17.221Z,10.82
2023-01-21T12:23:44.871Z,14.20
2023-01-21T12:27:11.765Z,13.30
2023-01-21T12:30:25.417Z,22.48
2023-01-21T12:33:29.722Z,20.10
2023-01-21T12:36:45.824Z,14.68
2023-01-21T12:39:50.339Z,21.30
2023-01-21T12:42:56.096Z,12.65
2023-01-21T12:46:06.165Z,13.93
2023-01-21T12:49:17.692Z,12.70
2023-01-21T12:52:26.793Z,14.52
2023-01-21T12:55:58.174Z,20.80
2023-01-21T12:59:15.407Z,13.18
2023-01-21T13:02:46.136Z,13.50
2023-01-21T13:05:55.730Z,16.17
2023-01-21T13:09:07.563Z,13.85
2023-01-21T13:12:20.579Z,17.35
2023-01-21T13:15:28.109Z,16.00
2023-01-21T13:18:34.844Z,17.35
2023-01-21T13:21:43.725Z,17.35
2023-01-21T13:25:21.092Z,20.67
2023-01-21T13:28:37.482Z,16.63
2023-01-21T13:31:48.789Z,17.25
2023-01-21T13:35:12.899Z,18.48
2023-01-21T13:38:20.261Z,16.08
2023-01-21T13:41:52.898Z,22.10
2023-01-21T13:45:27.597Z,16.10
2023-01-21T13:48:57.532Z,21.67
2023-01-21T13:52:14.893Z,17.67
2023-01-21T13:55:36.088Z,23.95
2023-01-21T13:58:59.512Z,16.60
2023-01-21T14:02:15.255Z,15.75
2023-01-21T14:05:19.914Z,19.08
2023-01-21T14:08:28.446Z,15.68
2023-01-21T14:11:38.494Z,20.40
2023-01-21T14:15:16.064Z,16.65
2023-01-21T14:18:39.121Z,16.67
2023-01-21T14:22:05.781Z,18.38
2023-01-21T14:25:26.270Z,20.75
2023-01-21T14:28:58.420Z,16.35
2023-01-21T14:32:20.569Z,20.02
2023-01-21T14:35:28.259Z,19.10
2023-01-21T14:38:39.982Z,14.75
2023-01-21T14:42:04.526Z,16.27
2023-01-21T14:45:08.218Z,16.73
2023-01-21T14:48:34.855Z,18.25
2023-01-21T14:51:42.516Z,17.55
2023-01-21T14:54:46.144Z,18.63
2023-01-21T14:57:52.733Z,20.52
2023-01-21T15:00:54.358Z,21.15
2023-01-21T15:03:57.967Z,15.70
2023-01-21T15:07:06.466Z,12.73
2023-01-21T15:10:17.950Z,16.63
2023-01-21T15:13:37.937Z,16.77
2023-01-21T15:16:44.527Z,17.48
2023-01-21T15:19:57.219Z,19.17
2023-01-21T15:23:29.691Z,16.63
2023-01-21T15:26:32.717Z,23.45
2023-01-21T15:29:36.853Z,17.23
2023-01-21T15:32:50.089Z,18.13
2023-01-21T15:35:54.176Z,16.98
2023-01-21T15:42:55.219Z,16.98
2023-01-21T15:46:08.979Z,13.80
2023-01-21T15:49:40.585Z,16.95
2023-01-21T15:53:28.488Z,14.52
2023-01-21T15:56:44.878Z,13.02
2023-01-21T16:00:25.493Z,15.18
2023-01-21T16:03:32.873Z,17.00
2023-01-21T16:06:37.211Z,16.45
2023-01-21T16:10:17.104Z,20.15
2023-01-21T16:13:45.361Z,17.63
2023-01-21T16:17:06.929Z,14.05
2023-01-21T16:20:11.520Z,14.07
2023-01-21T16:23:17.175Z,14.05
2023-01-21T16:26:30.878Z,14.55
2023-01-21T16:29:38.547Z,13.38
2023-01-21T16:32:40.138Z,13.10
2023-01-21T16:35:45.951Z,15.55
2023-01-21T16:38:48.521Z,12.48
2023-01-21T16:42:01.226Z,15.25
2023-01-21T16:45:22.403Z,13.95
2023-01-21T16:48:27.571Z,12.00
2023-01-21T16:51:34.572Z,14.02
2023-01-21T16:54:48.749Z,13.38
2023-01-21T16:57:52.665Z,14.23
2023-01-21T17:01:02.467Z,19.25
2023-01-21T17:04:05.102Z,15.38
2023-01-21T17:07:32.660Z,18.80
2023-01-21T17:10:39.008Z,18.23
2023-01-21T17:13:43.132Z,17.92
2023-01-21T17:19:49.779Z,25.63
2023-01-21T17:22:51.344Z,26.75
2023-01-21T17:25:57.386Z,34.20
2023-01-21T17:29:07.722Z,30.45
2023-01-21T17:32:31.385Z,37.08
2023-01-21T17:35:33.551Z,42.27
2023-01-21T17:38:40.989Z,32.83
2023-01-21T17:41:46.219Z,32.70
2023-01-21T17:44:57.053Z,40.58
2023-01-21T17:48:08.966Z,37.60
2023-01-21T17:51:16.228Z,33.70
2023-01-21T17:54:23.498Z,40.10
2023-01-21T17:57:35.942Z,41.63
2023-01-21T18:00:45.820Z,35.40
2023-01-21T18:03:47.460Z,32.13
2023-01-21T18:06:50.777Z,38.47
2023-01-21T18:09:54.343Z,31.63
2023-01-21T18:12:58.199Z,34.88
2023-01-21T18:15:59.887Z,35.58
2023-01-21T18:19:01.604Z,35.17
2023-01-21T18:22:06.037Z,34.05
2023-01-21T18:25:07.829Z,34.97
2023-01-21T18:28:21.554Z,34.45
2023-01-21T18:31:23.500Z,40.95
2023-01-21T18:34:25.367Z,35.67
2023-01-21T18:37:27.061Z,34.97
2023-01-21T18:40:28.679Z,42.40
2023-01-21T18:43:31.089Z,39.53
2023-01-21T18:46:32.668Z,34.92
2023-01-21T18:49:34.202Z,35.15
2023-01-21T18:52:35.820Z,35.50
2023-01-21T18:55:37.418Z,35.10
2023-01-21T18:58:38.946Z,35.88
2023-01-21T19:01:41.853Z,32.90
2023-01-21T19:04:43.996Z,38.85
2023-01-21T19:07:45.687Z,42.60
2023-01-21T19:10:47.492Z,34.10
2023-01-21T19:13:49.021Z,38.60
2023-01-21T19:16:50.719Z,33.90
2023-01-21T19:19:56.161Z,33.15
2023-01-21T19:22:57.907Z,35.33
2023-01-21T19:25:59.762Z,35.75
2023-01-21T19:29:03.592Z,36.10
2023-01-21T19:32:05.477Z,42.22
2023-01-21T19:35:07.547Z,37.25
2023-01-21T19:38:18.954Z,35.25
2023-01-21T19:41:20.755Z,39.88
2023-01-21T19:44:22.387Z,33.67
2023-01-21T19:47:28.689Z,36.05
2023-01-21T19:50:31.001Z,36.35
2023-01-21T19:53:32.689Z,34.30
2023-01-21T19:56:34.710Z,33.95
2023-01-21T19:59:36.319Z,35.90
2023-01-21T20:02:37.870Z,36.88
2023-01-21T20:05:39.973Z,37.20
2023-01-21T20:08:43.730Z,36.78
2023-01-21T20:11:45.426Z,39.78
2023-01-21T20:14:46.987Z,31.63
2023-01-21T20:17:53.101Z,35.65
2023-01-21T20:20:55.011Z,35.65
2023-01-21T20:23:56.536Z,35.20
2023-01-21T20:26:59.261Z,35.88
2023-01-21T20:30:15.755Z,33.67
2023-01-21T20:33:20.690Z,32.40
2023-01-21T20:36:25.288Z,32.40
2023-01-21T20:39:26.900Z,33.90
2023-01-21T20:42:28.478Z,32.25
2023-01-21T20:45:42.415Z,37.72
2023-01-21T20:48:44.583Z,33.63
2023-01-21T20:51:46.165Z,30.70
2023-01-21T20:54:47.782Z,34.40
2023-01-21T20:57:49.896Z,33.38
2023-01-21T21:00:51.890Z,34.15
2023-01-21T21:03:53.526Z,34.17
2023-01-21T21:06:55.134Z,32.85
2023-01-21T21:09:57.773Z,31.90
2023-01-21T21:13:00.332Z,32.03
2023-01-21T21:16:02.890Z,38.38
2023-01-21T21:19:04.783Z,31.42
2023-01-21T21:22:06.628Z,35.78
2023-01-21T21:25:13.287Z,30.08
2023-01-21T21:28:17.165Z,34.50
2023-01-21T21:31:18.755Z,30.88
2023-01-21T21:34:23.839Z,30.73
2023-01-21T21:37:25.469Z,28.42
2023-01-21T21:40:30.738Z,29.20
2023-01-21T21:43:32.336Z,32.55
2023-01-21T21:46:52.498Z,32.92
2023-01-21T21:49:54.092Z,34.03
2023-01-21T21:52:55.640Z,26.15
2023-01-21T21:56:05.270Z,29.42
2023-01-21T21:59:06.934Z,25.90
2023-01-21T22:02:12.415Z,23.75
2023-01-21T22:05:14.129Z,23.83
2023-01-21T22:08:16.173Z,24.08
2023-01-21T22:11:19.804Z,22.52
2023-01-21T22:14:21.321Z,26.63
2023-01-21T22:17:22.834Z,26.80
2023-01-21T22:20:24.335Z,27.45
2023-01-21T22:23:25.869Z,23.02
2023-01-21T22:26:30.882Z,25.70
2023-01-21T22:29:32.664Z,29.58
2023-01-21T22:32:34.186Z,26.40
2023-01-21T22:35:35.787Z,23.70
2023-01-21T22:38:40.513Z,26.30
2023-01-21T22:41:42.224Z,24.15
2023-01-21T22:44:43.748Z,26.05
2023-01-21T22:47:45.387Z,28.05
2023-01-21T22:50:52.388Z,24.27
2023-01-21T22:53:54.127Z,24.95
2023-01-21T22:56:55.580Z,29.45
2023-01-21T22:59:57.202Z,27.92
2023-01-21T23:02:58.669Z,25.00
2023-01-21T23:06:08.402Z,28.63
2023-01-21T23:09:14.137Z,26.95
2023-01-21T23:12:18.816Z,25.67
2023-01-21T23:15:21.970Z,27.25
2023-01-21T23:18:25.880Z,28.88
2023-01-21T23:21:27.391Z,26.63
2023-01-21T23:24:28.844Z,26.75
2023-01-21T23:27:30.314Z,24.83
2023-01-21T23:30:33.711Z,27.38
2023-01-21T23:33:35.730Z,25.30
2023-01-21T23:36:37.262Z,27.88
2023-01-21T23:39:38.808Z,26.80
2023-01-21T23:42:40.868Z,26.80
2023-01-21T23:45:42.477Z,27.95
2023-01-21T23:48:44.191Z,25.90
2023-01-21T23:51:47.272Z,26.35
2023-01-21T23:54:48.847Z,25.92
2023-01-21T23:57:50.429Z,25.42
